createdAt,value
2022-12-19T00:00:14.938Z,0.90
2022-12-19T00:01:14.028Z,0.90
2022-12-19T00:02:14.139Z,0.92
2022-12-19T00:03:14.103Z,0.93
2022-12-19T00:04:13.998Z,0.95
2022-12-19T00:05:13.998Z,0.95
2022-12-19T00:06:13.979Z,0.95
2022-12-19T00:07:13.962Z,0.95
2022-12-19T00:08:17.016Z,0.98
2022-12-19T00:09:13.940Z,0.98
2022-12-19T00:10:13.945Z,0.99
2022-12-19T00:11:13.919Z,0.99
2022-12-19T00:12:19.059Z,1.02
2022-12-19T00:13:13.910Z,1.02
2022-12-19T00:14:13.889Z,1.04
2022-12-19T00:15:13.888Z,1.04
2022-12-19T00:16:13.916Z,1.04
2022-12-19T00:17:13.853Z,1.02
2022-12-19T00:18:13.847Z,1.04
2022-12-19T00:19:13.829Z,1.06
2022-12-19T00:20:13.851Z,1.04
2022-12-19T00:21:13.810Z,1.07
2022-12-19T00:22:13.804Z,1.07
2022-12-19T00:23:13.790Z,1.07
2022-12-19T00:24:21.280Z,1.08
2022-12-19T00:25:13.795Z,1.08
2022-12-19T00:26:13.763Z,1.13
2022-12-19T00:27:13.750Z,1.13
2022-12-19T00:28:13.767Z,1.13
2022-12-19T00:29:14.630Z,1.14
2022-12-19T00:30:13.731Z,1.14
2022-12-19T00:31:13.789Z,1.13
2022-12-19T00:32:13.721Z,1.13
2022-12-19T00:33:13.681Z,1.14
2022-12-19T00:34:13.678Z,1.13
2022-12-19T00:35:13.672Z,1.11
2022-12-19T00:36:13.652Z,1.11
2022-12-19T00:37:13.637Z,1.13
2022-12-19T00:38:13.631Z,1.13
2022-12-19T00:39:13.618Z,1.13
2022-12-19T00:40:13.623Z,1.14
2022-12-19T00:41:13.594Z,1.14
2022-12-19T00:42:13.588Z,1.14
2022-12-19T00:43:13.571Z,1.13
2022-12-19T00:44:13.855Z,1.14
2022-12-19T00:45:13.565Z,1.16
2022-12-19T00:46:13.614Z,1.17
2022-12-19T00:47:13.534Z,1.16
2022-12-19T00:48:13.525Z,1.17
2022-12-19T00:49:13.509Z,1.16
2022-12-19T00:50:13.514Z,1.17
2022-12-19T00:51:13.487Z,1.17
2022-12-19T00:52:13.480Z,1.17
2022-12-19T00:53:13.465Z,1.16
2022-12-19T00:54:13.460Z,1.17
2022-12-19T00:55:18.758Z,1.16
2022-12-19T00:56:13.442Z,1.17
2022-12-19T00:57:13.423Z,1.20
2022-12-19T00:58:13.418Z,1.18
2022-12-19T00:59:13.399Z,1.20
2022-12-19T01:00:13.407Z,1.20
2022-12-19T01:01:13.424Z,1.20
2022-12-19T01:02:13.524Z,1.20
2022-12-19T01:03:13.392Z,1.20
2022-12-19T01:04:29.793Z,1.21
2022-12-19T01:05:13.353Z,1.24
2022-12-19T01:06:13.328Z,1.24
2022-12-19T01:07:13.317Z,1.26
2022-12-19T01:08:13.308Z,1.28
2022-12-19T01:09:13.290Z,1.28
2022-12-19T01:10:13.299Z,1.28
2022-12-19T01:11:13.272Z,1.31
2022-12-19T01:12:13.269Z,1.32
2022-12-19T01:13:13.251Z,1.35
2022-12-19T01:14:19.057Z,1.38
2022-12-19T01:15:13.246Z,1.38
2022-12-19T01:16:13.301Z,1.36
2022-12-19T01:17:13.211Z,1.36
2022-12-19T01:18:13.200Z,1.36
2022-12-19T01:19:13.184Z,1.35
2022-12-19T01:20:13.194Z,1.36
2022-12-19T01:21:13.161Z,1.34
2022-12-19T01:22:13.164Z,1.36
2022-12-19T01:23:13.140Z,1.35
2022-12-19T01:24:13.762Z,1.38
2022-12-19T01:25:13.125Z,1.38
2022-12-19T01:26:13.123Z,1.39
2022-12-19T01:27:13.097Z,1.42
2022-12-19T01:28:13.092Z,1.43
2022-12-19T01:29:13.078Z,1.43
2022-12-19T01:30:13.080Z,1.49
2022-12-19T01:31:13.094Z,1.49
2022-12-19T01:32:13.049Z,1.47
2022-12-19T01:33:13.030Z,1.47
2022-12-19T01:34:13.023Z,1.50
2022-12-19T01:35:20.724Z,1.52
2022-12-19T01:36:13.024Z,1.52
2022-12-19T01:37:12.986Z,1.52
2022-12-19T01:38:12.981Z,1.53
2022-12-19T01:39:12.964Z,1.54
2022-12-19T01:40:12.991Z,1.56
2022-12-19T01:41:12.956Z,1.60
2022-12-19T01:42:12.944Z,1.61
2022-12-19T01:43:12.934Z,1.63
2022-12-19T01:44:12.916Z,1.61
2022-12-19T01:45:14.100Z,1.61
2022-12-19T01:46:12.936Z,1.60
2022-12-19T01:47:12.880Z,1.60
2022-12-19T01:48:12.878Z,1.60
2022-12-19T01:49:12.878Z,1.60
2022-12-19T01:50:12.850Z,1.61
2022-12-19T01:51:12.849Z,1.61
2022-12-19T01:52:13.512Z,1.64
2022-12-19T01:53:12.818Z,1.65
2022-12-19T01:54:12.815Z,1.68
2022-12-19T01:55:12.794Z,1.68
2022-12-19T01:56:12.768Z,1.68
2022-12-19T01:57:12.742Z,1.68
2022-12-19T01:58:12.742Z,1.70
2022-12-19T01:59:12.718Z,1.71
2022-12-19T02:00:12.712Z,1.71
2022-12-19T02:01:12.742Z,1.71
2022-12-19T02:02:12.753Z,1.70
2022-12-19T02:03:12.807Z,1.72
2022-12-19T02:04:12.672Z,1.70
2022-12-19T02:05:12.657Z,1.71
2022-12-19T02:06:12.672Z,1.74
2022-12-19T02:07:15.868Z,1.72
2022-12-19T02:08:12.630Z,1.72
2022-12-19T02:09:12.610Z,1.74
2022-12-19T02:10:12.614Z,1.72
2022-12-19T02:11:12.612Z,1.74
2022-12-19T02:12:12.591Z,1.75
2022-12-19T02:13:12.574Z,1.77
2022-12-19T02:14:12.564Z,1.77
2022-12-19T02:15:12.549Z,1.79
2022-12-19T02:16:12.573Z,1.75
2022-12-19T02:17:12.541Z,1.79
2022-12-19T02:18:12.523Z,1.81
2022-12-19T02:19:12.517Z,1.82
2022-12-19T02:20:12.502Z,1.81
2022-12-19T02:21:12.499Z,1.83
2022-12-19T02:22:17.408Z,1.86
2022-12-19T02:23:13.054Z,1.86
2022-12-19T02:24:12.467Z,1.86
2022-12-19T02:25:12.452Z,1.86
2022-12-19T02:26:12.450Z,1.88
2022-12-19T02:27:12.442Z,1.88
2022-12-19T02:28:12.416Z,1.88
2022-12-19T02:29:12.409Z,1.90
2022-12-19T02:30:12.409Z,1.92
2022-12-19T02:31:16.759Z,1.90
2022-12-19T02:32:12.443Z,1.90
2022-12-19T02:33:12.372Z,1.92
2022-12-19T02:34:12.357Z,1.92
2022-12-19T02:35:12.345Z,1.92
2022-12-19T02:36:12.333Z,1.95
2022-12-19T02:37:12.344Z,1.98
2022-12-19T02:38:13.189Z,2.00
2022-12-19T02:39:12.305Z,2.00
2022-12-19T02:40:12.290Z,2.01
2022-12-19T02:41:12.294Z,2.02
2022-12-19T02:42:12.292Z,2.02
2022-12-19T02:43:12.269Z,2.01
2022-12-19T02:44:12.249Z,2.04
2022-12-19T02:45:12.257Z,2.04
2022-12-19T02:46:12.261Z,2.02
2022-12-19T02:47:12.245Z,2.05
2022-12-19T02:48:15.066Z,2.07
2022-12-19T02:49:12.208Z,2.07
2022-12-19T02:50:12.187Z,2.08
2022-12-19T02:51:12.183Z,2.09
2022-12-19T02:52:12.222Z,2.09
2022-12-19T02:53:12.161Z,2.08
2022-12-19T02:54:12.148Z,2.08
2022-12-19T02:55:12.139Z,2.09
2022-12-19T02:56:12.129Z,2.12
2022-12-19T02:57:12.130Z,2.12
2022-12-19T02:58:12.108Z,2.14
2022-12-19T02:59:12.098Z,2.18
2022-12-19T03:00:12.085Z,2.19
2022-12-19T03:01:12.102Z,2.19
2022-12-19T03:02:12.303Z,2.18
2022-12-19T03:03:12.287Z,2.18
2022-12-19T03:07:47.586Z,2.22
2022-12-19T03:08:48.567Z,2.23
2022-12-19T03:09:48.563Z,2.22
2022-12-19T03:10:48.550Z,2.23
2022-12-19T03:11:48.540Z,2.23
2022-12-19T03:12:48.543Z,2.23
2022-12-19T03:13:48.526Z,2.23
2022-12-19T03:14:48.504Z,2.23
2022-12-19T03:15:48.506Z,2.26
2022-12-19T03:16:48.943Z,2.27
2022-12-19T03:17:48.777Z,2.30
2022-12-19T03:18:48.845Z,2.33
2022-12-19T03:19:48.803Z,2.33
2022-12-19T03:20:48.935Z,2.37
2022-12-19T03:21:48.842Z,2.40
2022-12-19T03:22:48.829Z,2.40
2022-12-19T03:23:48.791Z,2.40
2022-12-19T03:24:48.560Z,2.40
2022-12-19T03:25:48.398Z,2.40
2022-12-19T03:26:48.401Z,2.41
2022-12-19T03:27:48.383Z,2.41
2022-12-19T03:28:48.357Z,2.43
2022-12-19T03:29:48.362Z,2.44
2022-12-19T03:30:48.364Z,2.44
2022-12-19T03:31:48.334Z,2.44
2022-12-19T03:32:48.327Z,2.47
2022-12-19T03:33:48.309Z,2.48
2022-12-19T03:34:48.296Z,2.44
2022-12-19T03:35:48.292Z,2.43
2022-12-19T03:36:48.268Z,2.43
2022-12-19T03:37:48.284Z,2.44
2022-12-19T03:38:48.251Z,2.43
2022-12-19T03:39:48.249Z,2.44
2022-12-19T03:40:48.229Z,2.43
2022-12-19T03:41:48.223Z,2.43
2022-12-19T03:42:48.222Z,2.44
2022-12-19T03:43:48.205Z,2.44
2022-12-19T03:44:48.186Z,2.47
2022-12-19T03:45:48.199Z,2.47
2022-12-19T03:46:48.171Z,2.47
2022-12-19T03:47:48.185Z,2.48
2022-12-19T03:48:48.149Z,2.50
2022-12-19T03:49:48.143Z,2.53
2022-12-19T03:50:48.124Z,2.53
2022-12-19T03:51:48.123Z,2.56
2022-12-19T03:52:48.116Z,2.56
2022-12-19T03:53:48.094Z,2.55
2022-12-19T03:54:48.082Z,2.53
2022-12-19T03:55:48.175Z,2.53
2022-12-19T03:56:48.059Z,2.51
2022-12-19T03:57:48.065Z,2.53
2022-12-19T03:58:48.037Z,2.51
2022-12-19T03:59:48.034Z,2.50
2022-12-19T04:00:48.023Z,2.48
2022-12-19T04:01:48.077Z,2.48
2022-12-19T04:02:48.006Z,2.48
2022-12-19T04:03:48.044Z,2.47
2022-12-19T04:04:47.978Z,2.48
2022-12-19T04:05:47.966Z,2.50
2022-12-19T04:06:47.951Z,2.53
2022-12-19T04:07:47.976Z,2.55
2022-12-19T04:08:47.935Z,2.53
2022-12-19T04:09:47.926Z,2.53
2022-12-19T04:10:47.925Z,2.53
2022-12-19T04:11:47.904Z,2.53
2022-12-19T04:12:47.901Z,2.51
2022-12-19T04:13:47.888Z,2.50
2022-12-19T04:14:47.870Z,2.51
2022-12-19T04:15:47.922Z,2.53
2022-12-19T04:16:47.874Z,2.50
2022-12-19T04:17:47.851Z,2.51
2022-12-19T04:18:47.831Z,2.51
2022-12-19T04:19:47.818Z,2.51
2022-12-19T04:20:47.811Z,2.50
2022-12-19T04:21:47.798Z,2.51
2022-12-19T04:22:47.798Z,2.55
2022-12-19T04:23:47.772Z,2.53
2022-12-19T04:24:47.766Z,2.58
2022-12-19T04:25:47.753Z,2.63
2022-12-19T04:26:47.745Z,2.69
2022-12-19T04:27:47.739Z,2.73
2022-12-19T04:28:47.719Z,2.73
2022-12-19T04:29:47.706Z,2.74
2022-12-19T04:30:47.759Z,2.73
2022-12-19T04:31:47.697Z,2.77
2022-12-19T04:32:47.689Z,2.79
2022-12-19T04:33:47.672Z,2.84
2022-12-19T04:34:47.663Z,2.89
2022-12-19T04:35:47.644Z,2.89
2022-12-19T04:36:47.635Z,2.90
2022-12-19T04:37:47.635Z,2.87
2022-12-19T04:38:47.623Z,2.92
2022-12-19T04:39:47.604Z,3.01
2022-12-19T04:40:47.593Z,3.01
2022-12-19T04:41:47.593Z,3.02
2022-12-19T04:42:47.588Z,3.02
2022-12-19T04:43:47.558Z,3.02
2022-12-19T04:44:47.547Z,3.01
2022-12-19T04:45:49.721Z,3.01
2022-12-19T04:46:47.583Z,3.01
2022-12-19T04:47:47.522Z,2.99
2022-12-19T04:48:47.512Z,2.97
2022-12-19T04:49:47.495Z,2.98
2022-12-19T04:50:47.486Z,2.98
2022-12-19T04:51:47.468Z,3.01
2022-12-19T04:52:47.483Z,3.01
2022-12-19T04:53:47.449Z,3.02
2022-12-19T04:54:47.440Z,3.02
2022-12-19T04:55:47.427Z,3.05
2022-12-19T04:56:47.426Z,3.02
2022-12-19T04:57:47.401Z,3.05
2022-12-19T04:58:47.406Z,3.07
2022-12-19T04:59:47.384Z,3.08
2022-12-19T05:00:47.381Z,3.10
2022-12-19T05:01:47.453Z,3.08
2022-12-19T05:02:47.614Z,3.08
2022-12-19T05:03:52.686Z,3.08
2022-12-19T05:04:47.336Z,3.08
2022-12-19T05:05:47.321Z,3.08
2022-12-19T05:06:47.335Z,3.08
2022-12-19T05:07:47.300Z,3.08
2022-12-19T05:08:47.300Z,3.08
2022-12-19T05:09:47.273Z,3.08
2022-12-19T05:10:47.265Z,3.10
2022-12-19T05:11:47.248Z,3.12
2022-12-19T05:12:47.243Z,3.13
2022-12-19T05:13:47.270Z,3.15
2022-12-19T05:14:47.230Z,3.15
2022-12-19T05:15:47.240Z,3.15
2022-12-19T05:16:47.205Z,3.13
2022-12-19T05:17:47.199Z,3.15
2022-12-19T05:18:47.196Z,3.12
2022-12-19T05:19:47.165Z,3.12
2022-12-19T05:20:47.156Z,3.10
2022-12-19T05:21:47.139Z,3.07
2022-12-19T05:22:47.144Z,3.10
2022-12-19T05:23:47.130Z,3.15
2022-12-19T05:24:47.113Z,3.16
2022-12-19T05:25:47.097Z,3.17
2022-12-19T05:26:47.089Z,3.19
2022-12-19T05:27:47.074Z,3.19
2022-12-19T05:28:47.089Z,3.17
2022-12-19T05:29:47.051Z,3.17
2022-12-19T05:30:52.054Z,3.17
2022-12-19T05:31:47.063Z,3.19
2022-12-19T05:32:47.025Z,3.20
2022-12-19T05:33:47.021Z,3.20
2022-12-19T05:34:47.020Z,3.22
2022-12-19T05:35:46.996Z,3.22
2022-12-19T05:36:46.983Z,3.20
2022-12-19T05:37:46.981Z,3.23
2022-12-19T05:38:46.976Z,3.22
2022-12-19T05:39:46.943Z,3.22
2022-12-19T05:40:46.939Z,3.22
2022-12-19T05:41:49.224Z,3.22
2022-12-19T05:42:46.914Z,3.23
2022-12-19T05:43:46.923Z,3.19
2022-12-19T05:44:46.898Z,3.20
2022-12-19T05:45:46.881Z,3.26
2022-12-19T05:46:46.926Z,3.26
2022-12-19T05:47:46.856Z,3.25
2022-12-19T05:48:46.859Z,3.23
2022-12-19T05:49:46.846Z,3.25
2022-12-19T05:50:46.828Z,3.23
2022-12-19T05:51:46.823Z,3.20
2022-12-19T05:52:46.811Z,3.20
2022-12-19T05:53:46.792Z,3.20
2022-12-19T05:54:46.794Z,3.23
2022-12-19T05:55:46.764Z,3.25
2022-12-19T05:56:46.762Z,3.25
2022-12-19T05:57:46.746Z,3.22
2022-12-19T05:58:46.749Z,3.22
2022-12-19T05:59:46.736Z,3.23
2022-12-19T06:00:46.722Z,3.22
2022-12-19T06:01:46.746Z,3.22
2022-12-19T06:02:46.837Z,3.22
2022-12-19T06:03:46.789Z,3.20
2022-12-19T06:04:46.686Z,3.19
2022-12-19T06:05:46.659Z,3.17
2022-12-19T06:06:46.674Z,3.19
2022-12-19T06:07:46.639Z,3.23
2022-12-19T06:08:46.627Z,3.25
2022-12-19T06:09:46.635Z,3.25
2022-12-19T06:10:46.612Z,3.25
2022-12-19T06:11:46.594Z,3.25
2022-12-19T06:12:46.593Z,3.28
2022-12-19T06:13:46.574Z,3.30
2022-12-19T06:14:46.568Z,3.34
2022-12-19T06:15:46.605Z,3.34
2022-12-19T06:16:46.538Z,3.37
2022-12-19T06:17:46.575Z,3.39
2022-12-19T06:18:46.518Z,3.46
2022-12-19T06:19:46.521Z,3.46
2022-12-19T06:20:46.495Z,3.49
2022-12-19T06:21:48.383Z,3.50
2022-12-19T06:22:46.480Z,3.52
2022-12-19T06:23:46.474Z,3.53
2022-12-19T06:24:46.460Z,3.57
2022-12-19T06:25:46.442Z,3.62
2022-12-19T06:26:46.428Z,3.60
2022-12-19T06:27:46.427Z,3.57
2022-12-19T06:28:46.405Z,3.67
2022-12-19T06:29:46.413Z,3.67
2022-12-19T06:30:46.383Z,3.68
2022-12-19T06:31:46.396Z,3.68
2022-12-19T06:32:46.362Z,3.67
2022-12-19T06:33:46.356Z,3.63
2022-12-19T06:35:03.637Z,3.64
2022-12-19T06:35:46.340Z,3.71
2022-12-19T06:36:46.318Z,3.71
2022-12-19T06:37:46.312Z,3.74
2022-12-19T06:38:46.296Z,3.81
2022-12-19T06:39:46.304Z,3.86
2022-12-19T06:40:46.283Z,3.86
2022-12-19T06:41:46.274Z,3.90
2022-12-19T06:42:46.251Z,3.90
2022-12-19T06:43:49.210Z,3.93
2022-12-19T06:44:46.264Z,3.95
2022-12-19T06:45:46.275Z,3.99
2022-12-19T06:46:46.213Z,4.04
2022-12-19T06:47:46.199Z,4.08
2022-12-19T06:48:46.186Z,4.11
2022-12-19T06:49:46.201Z,4.17
2022-12-19T06:50:46.167Z,4.20
2022-12-19T06:51:46.183Z,4.24
2022-12-19T06:52:46.249Z,4.26
2022-12-19T06:53:46.134Z,4.25
2022-12-19T06:54:46.134Z,4.24
2022-12-19T06:55:46.115Z,4.24
2022-12-19T06:56:46.098Z,4.28
2022-12-19T06:57:46.090Z,4.31
2022-12-19T06:58:46.188Z,4.29
2022-12-19T06:59:46.082Z,4.32
2022-12-19T07:00:46.088Z,4.32
2022-12-19T07:01:46.216Z,4.32
2022-12-19T07:02:46.184Z,4.32
2022-12-19T07:03:46.030Z,4.31
2022-12-19T07:04:46.032Z,4.34
2022-12-19T07:05:46.005Z,4.32
2022-12-19T07:06:49.074Z,4.34
2022-12-19T07:07:45.990Z,4.32
2022-12-19T07:08:45.972Z,4.36
2022-12-19T07:09:45.959Z,4.36
2022-12-19T07:10:46.036Z,4.35
2022-12-19T07:11:45.958Z,4.38
2022-12-19T07:12:45.921Z,4.38
2022-12-19T07:13:45.926Z,4.38
2022-12-19T07:14:51.662Z,4.39
2022-12-19T07:15:45.908Z,4.39
2022-12-19T07:16:45.935Z,4.42
2022-12-19T07:17:45.871Z,4.39
2022-12-19T07:18:46.171Z,4.42
2022-12-19T07:19:45.857Z,4.42
2022-12-19T07:20:45.849Z,4.39
2022-12-19T07:21:45.829Z,4.43
2022-12-19T07:22:45.827Z,4.43
2022-12-19T07:23:45.807Z,4.44
2022-12-19T07:24:45.795Z,4.46
2022-12-19T07:25:45.792Z,4.43
2022-12-19T07:26:45.858Z,4.44
2022-12-19T07:27:45.759Z,4.42
2022-12-19T07:28:45.748Z,4.43
2022-12-19T07:29:45.755Z,4.44
2022-12-19T07:30:45.803Z,4.47
2022-12-19T07:31:46.004Z,4.49
2022-12-19T07:32:45.857Z,4.50
2022-12-19T07:33:45.703Z,4.50
2022-12-19T07:34:45.705Z,4.49
2022-12-19T07:35:45.692Z,4.51
2022-12-19T07:36:45.659Z,4.51
2022-12-19T07:37:45.658Z,4.53
2022-12-19T07:38:45.638Z,4.53
2022-12-19T07:39:46.312Z,4.51
2022-12-19T07:40:45.627Z,4.53
2022-12-19T07:41:45.619Z,4.57
2022-12-19T07:42:45.596Z,4.59
2022-12-19T07:43:45.591Z,4.57
2022-12-19T07:44:45.575Z,4.56
2022-12-19T07:45:45.608Z,4.59
2022-12-19T07:46:45.572Z,4.59
2022-12-19T07:47:45.545Z,4.65
2022-12-19T07:48:45.664Z,4.67
2022-12-19T07:49:45.596Z,4.67
2022-12-19T07:50:45.701Z,4.65
2022-12-19T07:51:45.638Z,4.67
2022-12-19T07:52:45.522Z,4.69
2022-12-19T07:53:45.517Z,4.68
2022-12-19T07:54:45.487Z,4.69
2022-12-19T07:55:45.482Z,4.68
2022-12-19T07:56:45.448Z,4.69
2022-12-19T07:57:45.434Z,4.75
2022-12-19T07:58:45.440Z,4.80
2022-12-19T07:59:45.413Z,4.79
2022-12-19T08:00:45.495Z,4.80
2022-12-19T08:01:45.549Z,4.83
2022-12-19T08:02:45.597Z,4.83
2022-12-19T08:03:45.373Z,4.83
2022-12-19T08:04:45.466Z,4.79
2022-12-19T08:05:45.413Z,4.84
2022-12-19T08:06:45.378Z,4.84
2022-12-19T08:07:45.368Z,4.87
2022-12-19T08:08:45.308Z,4.87
2022-12-19T08:09:45.308Z,4.90
2022-12-19T08:10:45.313Z,4.90
2022-12-19T08:11:45.290Z,4.88
2022-12-19T08:12:45.271Z,4.90
2022-12-19T08:13:46.920Z,4.91
2022-12-19T08:14:45.247Z,4.90
2022-12-19T08:15:45.250Z,4.90
2022-12-19T08:17:18.902Z,4.94
2022-12-19T08:17:45.304Z,4.91
2022-12-19T08:18:45.210Z,4.91
2022-12-19T08:19:45.200Z,4.90
2022-12-19T08:20:45.191Z,4.91
2022-12-19T08:21:45.176Z,4.91
2022-12-19T08:22:45.194Z,4.93
2022-12-19T08:23:45.157Z,4.93
2022-12-19T08:24:45.141Z,4.94
2022-12-19T08:25:45.150Z,4.97
2022-12-19T08:26:47.663Z,4.99
2022-12-19T08:27:45.182Z,5.02
2022-12-19T08:28:45.100Z,5.02
2022-12-19T08:29:45.090Z,5.04
2022-12-19T08:30:45.113Z,5.04
2022-12-19T08:31:45.107Z,5.01
2022-12-19T08:32:45.115Z,5.04
2022-12-19T08:33:45.124Z,5.06
2022-12-19T08:34:45.089Z,5.09
2022-12-19T08:35:45.232Z,5.15
2022-12-19T08:36:45.072Z,5.15
2022-12-19T08:37:45.057Z,5.17
2022-12-19T08:38:45.031Z,5.15
2022-12-19T08:39:44.984Z,5.15
2022-12-19T08:40:47.565Z,5.14
2022-12-19T08:41:45.189Z,5.14
2022-12-19T08:42:45.007Z,5.17
2022-12-19T08:43:44.972Z,5.17
2022-12-19T08:44:44.935Z,5.17
2022-12-19T08:45:44.956Z,5.17
2022-12-19T08:46:49.775Z,5.20
2022-12-19T08:47:44.899Z,5.24
2022-12-19T08:48:44.887Z,5.24
2022-12-19T08:49:44.979Z,5.22
2022-12-19T08:50:44.890Z,5.22
2022-12-19T08:51:44.902Z,5.22
2022-12-19T08:52:44.842Z,5.22
2022-12-19T08:53:44.829Z,5.23
2022-12-19T08:54:44.822Z,5.22
2022-12-19T08:55:44.807Z,5.23
2022-12-19T08:56:46.905Z,5.22
2022-12-19T08:57:44.793Z,5.22
2022-12-19T08:58:44.802Z,5.27
2022-12-19T08:59:44.784Z,5.27
2022-12-19T09:00:52.071Z,5.27
2022-12-19T09:01:44.938Z,5.27
2022-12-19T09:02:44.956Z,5.27
2022-12-19T09:04:18.173Z,5.27
2022-12-19T09:06:08.205Z,5.32
2022-12-19T09:06:19.304Z,5.37
2022-12-19T09:07:15.570Z,5.41
2022-12-19T09:08:13.313Z,5.44
2022-12-19T09:09:13.301Z,5.44
2022-12-19T09:10:13.295Z,5.41
2022-12-19T09:11:13.296Z,5.40
2022-12-19T09:12:13.282Z,5.41
2022-12-19T09:13:13.260Z,5.42
2022-12-19T09:14:13.245Z,5.40
2022-12-19T09:15:13.231Z,5.44
2022-12-19T09:16:13.238Z,5.48
2022-12-19T09:17:13.308Z,5.47
2022-12-19T09:18:13.200Z,5.49
2022-12-19T09:19:13.204Z,5.51
2022-12-19T09:20:15.795Z,5.51
2022-12-19T09:21:13.196Z,5.51
2022-12-19T09:22:13.157Z,5.51
2022-12-19T09:23:13.144Z,5.52
2022-12-19T09:24:13.144Z,5.55
2022-12-19T09:25:13.120Z,5.58
2022-12-19T09:26:13.113Z,5.59
2022-12-19T09:27:14.088Z,5.62
2022-12-19T09:28:28.550Z,5.62
2022-12-19T09:29:20.979Z,5.65
2022-12-19T09:30:13.086Z,5.67
2022-12-19T09:31:13.331Z,5.69
2022-12-19T09:32:13.457Z,5.69
2022-12-19T09:33:13.217Z,5.70
2022-12-19T09:34:13.026Z,5.70
2022-12-19T09:35:13.542Z,5.74
2022-12-19T09:36:13.017Z,5.73
2022-12-19T09:37:17.060Z,5.73
2022-12-19T09:38:12.979Z,5.75
2022-12-19T09:39:12.962Z,5.77
2022-12-19T09:40:12.960Z,5.77
2022-12-19T09:41:12.967Z,5.81
2022-12-19T09:42:12.953Z,5.81
2022-12-19T09:43:12.929Z,5.83
2022-12-19T09:44:13.045Z,5.81
2022-12-19T09:45:15.488Z,5.84
2022-12-19T09:46:13.039Z,5.90
2022-12-19T09:47:12.886Z,5.93
2022-12-19T09:48:17.765Z,5.93
2022-12-19T09:49:12.860Z,5.92
2022-12-19T09:50:12.855Z,5.92
2022-12-19T09:51:12.833Z,5.95
2022-12-19T09:52:12.835Z,5.98
2022-12-19T09:53:12.810Z,5.99
2022-12-19T09:54:12.992Z,6.01
2022-12-19T09:55:13.982Z,6.01
2022-12-19T09:56:12.779Z,6.01
2022-12-19T09:57:12.779Z,6.02
2022-12-19T09:58:12.773Z,6.02
2022-12-19T09:59:12.750Z,6.02
2022-12-19T10:00:12.752Z,6.05
2022-12-19T10:01:12.759Z,6.08
2022-12-19T10:02:12.979Z,6.06
2022-12-19T10:03:12.993Z,6.10
2022-12-19T10:04:12.690Z,6.10
2022-12-19T10:05:14.230Z,6.13
2022-12-19T10:07:11.735Z,6.17
2022-12-19T10:07:54.712Z,6.20
2022-12-19T10:08:12.672Z,6.21
2022-12-19T10:10:19.056Z,6.21
2022-12-19T10:12:52.270Z,6.25
2022-12-19T10:12:59.762Z,6.33
2022-12-19T10:13:51.440Z,6.35
2022-12-19T10:14:51.416Z,6.36
2022-12-19T10:15:59.915Z,6.36
2022-12-19T10:17:22.103Z,6.39
2022-12-19T10:17:51.398Z,6.36
2022-12-19T10:18:56.485Z,6.38
2022-12-19T10:19:51.371Z,6.40
2022-12-19T10:20:51.346Z,6.40
2022-12-19T10:22:17.219Z,6.40
2022-12-19T10:22:51.361Z,6.39
2022-12-19T10:23:51.381Z,6.39
2022-12-19T10:25:08.034Z,6.36
2022-12-19T10:25:51.316Z,6.36
2022-12-19T10:26:52.220Z,6.36
2022-12-19T10:27:59.311Z,6.36
2022-12-19T10:28:51.270Z,6.39
2022-12-19T10:29:51.253Z,6.39
2022-12-19T10:30:51.352Z,6.40
2022-12-19T10:31:53.598Z,6.43
2022-12-19T10:32:51.231Z,6.46
2022-12-19T10:33:51.232Z,6.48
2022-12-19T10:34:51.201Z,6.48
2022-12-19T10:35:51.198Z,6.51
2022-12-19T10:37:51.195Z,6.51
2022-12-19T10:38:51.976Z,6.53
2022-12-19T10:39:51.150Z,6.54
2022-12-19T10:40:51.141Z,6.58
2022-12-19T10:41:51.131Z,6.63
2022-12-19T10:42:51.160Z,6.65
2022-12-19T10:43:51.144Z,6.65
2022-12-19T10:44:51.101Z,6.69
2022-12-19T10:45:51.111Z,6.69
2022-12-19T10:46:51.184Z,6.71
2022-12-19T10:47:51.138Z,6.71
2022-12-19T10:48:51.073Z,6.71
2022-12-19T10:49:51.047Z,6.73
2022-12-19T10:50:51.016Z,6.73
2022-12-19T10:51:51.117Z,6.72
2022-12-19T10:52:51.012Z,6.73
2022-12-19T10:53:50.988Z,6.73
2022-12-19T10:54:50.979Z,6.78
2022-12-19T10:55:50.965Z,6.82
2022-12-19T10:56:50.992Z,6.86
2022-12-19T10:57:50.979Z,6.89
2022-12-19T10:58:50.933Z,6.91
2022-12-19T10:59:50.942Z,6.96
2022-12-19T11:00:50.954Z,6.94
2022-12-19T11:02:00.775Z,6.96
2022-12-19T11:02:51.081Z,6.96
2022-12-19T11:03:50.878Z,6.96
2022-12-19T11:04:50.900Z,6.94
2022-12-19T11:05:56.967Z,6.94
2022-12-19T11:06:50.850Z,6.96
2022-12-19T11:07:51.083Z,6.97
2022-12-19T11:08:51.189Z,6.99
2022-12-19T11:10:13.401Z,7.04
2022-12-19T11:14:24.574Z,7.05
2022-12-19T11:29:16.962Z,7.07
2022-12-19T11:32:41.845Z,7.23
2022-12-19T11:33:14.640Z,7.24
2022-12-19T11:34:14.512Z,7.26
2022-12-19T11:35:14.499Z,7.26
2022-12-19T11:36:14.484Z,7.26
2022-12-19T11:37:14.479Z,7.26
2022-12-19T11:38:14.474Z,7.30
2022-12-19T11:39:14.465Z,7.33
2022-12-19T11:40:14.467Z,7.34
2022-12-19T11:41:14.430Z,7.37
2022-12-19T11:42:14.418Z,7.41
2022-12-19T11:43:45.774Z,7.44
2022-12-19T11:44:14.420Z,7.45
2022-12-19T11:45:14.395Z,7.45
2022-12-19T11:46:21.160Z,7.45
2022-12-19T11:47:14.380Z,7.48
2022-12-19T11:48:14.362Z,7.48
2022-12-19T11:49:14.355Z,7.47
2022-12-19T11:50:14.334Z,7.50
2022-12-19T11:51:14.343Z,7.48
2022-12-19T11:52:36.824Z,7.47
2022-12-19T11:53:18.915Z,7.47
2022-12-19T11:54:14.292Z,7.45
2022-12-19T11:55:14.283Z,7.48
2022-12-19T11:56:15.871Z,7.50
2022-12-19T11:57:14.268Z,7.51
2022-12-19T11:58:14.263Z,7.52
2022-12-19T11:59:14.246Z,7.52
2022-12-19T12:00:14.224Z,7.54
2022-12-19T12:01:14.216Z,7.58
2022-12-19T12:02:14.203Z,7.58
2022-12-19T12:03:14.263Z,7.62
2022-12-19T12:04:14.388Z,7.63
2022-12-19T12:05:14.184Z,7.67
2022-12-19T12:06:14.157Z,7.69
2022-12-19T12:07:33.220Z,7.71
2022-12-19T12:10:00.192Z,7.71
2022-12-19T12:18:06.211Z,7.74
2022-12-19T12:35:33.126Z,7.95
2022-12-19T12:38:14.584Z,7.99
2022-12-19T12:38:27.854Z,7.95
2022-12-19T12:39:03.192Z,7.96
2022-12-19T12:40:03.168Z,7.94
2022-12-19T12:41:03.164Z,7.92
2022-12-19T12:42:03.148Z,7.92
2022-12-19T12:43:03.129Z,7.92
2022-12-19T12:44:03.133Z,7.95
2022-12-19T12:45:03.108Z,7.94
2022-12-19T12:46:03.513Z,7.92
2022-12-19T12:47:04.417Z,7.96
2022-12-19T12:48:03.470Z,7.95
2022-12-19T12:49:03.307Z,7.96
2022-12-19T12:50:03.507Z,8.02
2022-12-19T12:51:03.457Z,8.04
2022-12-19T12:52:03.436Z,8.06
2022-12-19T12:53:03.444Z,8.06
2022-12-19T12:54:03.461Z,8.04
2022-12-19T12:55:05.047Z,8.07
2022-12-19T12:56:05.611Z,8.07
2022-12-19T12:57:04.422Z,8.07
2022-12-19T12:58:06.989Z,8.04
2022-12-19T12:59:04.350Z,8.06
2022-12-19T13:00:04.245Z,8.04
2022-12-19T13:01:03.374Z,8.09
2022-12-19T13:02:03.412Z,8.13
2022-12-19T13:03:03.284Z,8.14
2022-12-19T13:04:02.903Z,8.17
2022-12-19T13:05:02.901Z,8.14
2022-12-19T13:06:02.900Z,8.13
2022-12-19T13:07:02.873Z,8.13
2022-12-19T13:08:02.872Z,8.12
2022-12-19T13:09:02.853Z,8.12
2022-12-19T13:10:02.853Z,8.13
2022-12-19T13:11:02.849Z,8.13
2022-12-19T13:12:02.943Z,8.13
2022-12-19T13:13:02.813Z,8.12
2022-12-19T13:14:02.794Z,8.10
2022-12-19T13:15:02.805Z,8.12
2022-12-19T13:16:02.775Z,8.10
2022-12-19T13:17:02.795Z,8.12
2022-12-19T13:18:02.765Z,8.12
2022-12-19T13:19:02.744Z,8.09
2022-12-19T13:20:02.745Z,8.03
2022-12-19T13:21:02.778Z,8.03
2022-12-19T13:22:02.707Z,7.99
2022-12-19T13:23:02.694Z,7.99
2022-12-19T13:24:02.684Z,7.96
2022-12-19T13:25:02.685Z,8.00
2022-12-19T13:26:02.666Z,8.00
2022-12-19T13:27:02.648Z,8.02
2022-12-19T13:28:02.653Z,8.02
2022-12-19T13:29:02.625Z,8.02
2022-12-19T13:30:02.631Z,8.02
2022-12-19T13:31:02.613Z,7.99
2022-12-19T13:32:02.624Z,7.95
2022-12-19T13:33:02.590Z,7.95
2022-12-19T13:34:02.571Z,7.92
2022-12-19T13:35:21.634Z,7.89
2022-12-19T13:39:47.982Z,7.89
2022-12-19T13:40:11.070Z,7.88
2022-12-19T13:40:20.462Z,7.79
2022-12-19T13:41:08.120Z,7.74
2022-12-19T13:42:08.081Z,7.74
2022-12-19T13:43:10.703Z,7.73
2022-12-19T13:44:08.021Z,7.71
2022-12-19T13:45:08.033Z,7.71
2022-12-19T13:46:08.042Z,7.69
2022-12-19T13:47:08.018Z,7.67
2022-12-19T13:48:07.984Z,7.67
2022-12-19T13:49:07.973Z,7.66
2022-12-19T13:50:07.973Z,7.63
2022-12-19T13:51:07.959Z,7.62
2022-12-19T13:52:07.933Z,7.60
2022-12-19T13:53:09.083Z,7.58
2022-12-19T13:54:07.916Z,7.57
2022-12-19T13:55:07.921Z,7.57
2022-12-19T13:56:07.932Z,7.58
2022-12-19T13:57:09.571Z,7.60
2022-12-19T13:58:07.880Z,7.60
2022-12-19T13:59:07.868Z,7.60
2022-12-19T14:00:07.871Z,7.60
2022-12-19T14:01:07.861Z,7.58
2022-12-19T14:02:08.065Z,7.60
2022-12-19T14:03:08.023Z,7.63
2022-12-19T14:04:08.647Z,7.60
2022-12-19T14:05:07.814Z,7.58
2022-12-19T14:06:18.825Z,7.58
2022-12-19T14:07:07.785Z,7.57
2022-12-19T14:08:07.768Z,7.58
2022-12-19T14:10:24.002Z,7.55
2022-12-19T14:12:21.255Z,7.55
2022-12-19T14:14:01.923Z,7.58
2022-12-19T14:14:17.468Z,7.60